createdAt,value
2017-10-03T00:00:58.001Z,93.80
2017-10-03T00:03:25.658Z,93.90
2017-10-03T00:05:53.395Z,94.00
2017-10-03T00:08:21.102Z,93.90
2017-10-03T00:10:48.787Z,93.70
2017-10-03T00:13:16.535Z,93.70
2017-10-03T00:15:44.282Z,93.90
2017-10-03T00:18:12.030Z,93.80
2017-10-03T00:20:39.779Z,93.90
2017-10-03T00:23:07.524Z,93.90
2017-10-03T00:25:35.372Z,93.90
2017-10-03T00:28:03.017Z,93.70
2017-10-03T00:30:30.723Z,93.70
2017-10-03T00:32:58.512Z,93.50
2017-10-03T00:35:26.171Z,93.60
2017-10-03T00:37:53.906Z,93.50
2017-10-03T00:40:21.655Z,93.80
2017-10-03T00:42:49.401Z,93.70
2017-10-03T00:45:17.148Z,93.70
2017-10-03T00:47:44.895Z,93.80
2017-10-03T00:50:12.552Z,93.90
2017-10-03T00:52:40.492Z,93.90
2017-10-03T00:55:08.214Z,93.90
2017-10-03T00:57:35.987Z,94.00
2017-10-03T01:00:03.743Z,94.00
2017-10-03T01:02:31.438Z,94.00
2017-10-03T01:04:59.086Z,94.00
2017-10-03T01:07:26.873Z,93.90
2017-10-03T01:09:54.623Z,94.00
2017-10-03T01:12:22.370Z,93.90
2017-10-03T01:14:50.190Z,94.00
2017-10-03T01:17:17.837Z,94.00
2017-10-03T01:19:45.520Z,94.00
2017-10-03T01:22:13.227Z,93.90
2017-10-03T01:24:41.004Z,94.10
2017-10-03T01:27:08.675Z,94.00
2017-10-03T01:29:36.806Z,94.10
2017-10-03T01:32:04.552Z,94.20
2017-10-03T01:34:32.192Z,94.10
2017-10-03T01:36:59.891Z,94.10
2017-10-03T01:39:27.530Z,94.20
2017-10-03T01:41:55.183Z,94.20
2017-10-03T01:44:23.086Z,94.30
2017-10-03T01:46:50.782Z,94.10
2017-10-03T01:49:18.478Z,94.10
2017-10-03T01:51:46.190Z,94.00
2017-10-03T01:54:13.973Z,94.10
2017-10-03T01:56:41.721Z,94.00
2017-10-03T01:59:09.467Z,93.90
2017-10-03T02:01:37.111Z,94.00
2017-10-03T02:04:04.859Z,93.90
2017-10-03T02:06:32.572Z,94.00
2017-10-03T02:09:00.211Z,93.90
2017-10-03T02:11:27.896Z,93.90
2017-10-03T02:13:55.646Z,93.90
2017-10-03T02:16:23.290Z,93.90
2017-10-03T02:18:50.944Z,93.70
2017-10-03T02:21:18.679Z,93.90
2017-10-03T02:23:46.355Z,94.00
2017-10-03T02:26:14.403Z,94.20
2017-10-03T02:28:42.127Z,94.20
2017-10-03T02:31:09.772Z,94.30
2017-10-03T02:33:37.521Z,94.30
2017-10-03T02:36:05.335Z,94.30
2017-10-03T02:38:32.977Z,94.30
2017-10-03T02:41:00.614Z,94.30
2017-10-03T02:43:28.315Z,94.30
2017-10-03T02:45:56.052Z,94.30
2017-10-03T02:48:23.806Z,94.40
2017-10-03T02:50:51.652Z,94.50
2017-10-03T02:53:19.347Z,94.40
2017-10-03T02:55:47.044Z,94.30
2017-10-03T02:58:14.740Z,94.40
2017-10-03T03:00:42.388Z,94.40
2017-10-03T03:03:10.182Z,94.10
2017-10-03T03:05:38.124Z,94.30
2017-10-03T03:08:05.881Z,94.40
2017-10-03T03:10:33.628Z,94.30
2017-10-03T03:13:01.330Z,94.20
2017-10-03T03:15:28.994Z,94.20
2017-10-03T03:17:56.665Z,94.20
2017-10-03T03:20:24.363Z,94.10
2017-10-03T03:22:52.003Z,94.00
2017-10-03T03:25:19.704Z,93.90
2017-10-03T03:27:47.452Z,94.00
2017-10-03T03:30:15.199Z,94.00
2017-10-03T03:32:42.845Z,94.00
2017-10-03T03:35:10.654Z,94.00
2017-10-03T03:37:38.441Z,94.00
2017-10-03T03:40:06.188Z,93.80
2017-10-03T03:42:33.891Z,93.90
2017-10-03T03:45:01.580Z,93.90
2017-10-03T03:47:29.328Z,93.90
2017-10-03T03:49:57.074Z,93.80
2017-10-03T03:52:24.824Z,94.00
2017-10-03T03:54:52.572Z,93.90
2017-10-03T03:57:20.524Z,93.50
2017-10-03T03:59:48.272Z,93.40
2017-10-03T04:02:15.914Z,93.40
2017-10-03T04:04:43.626Z,93.10
2017-10-03T04:07:11.266Z,93.10
2017-10-03T04:09:38.923Z,93.30
2017-10-03T04:12:06.635Z,93.50
2017-10-03T04:14:34.703Z,93.10
2017-10-03T04:17:02.354Z,93.10
2017-10-03T04:19:30.248Z,92.90
2017-10-03T04:21:57.922Z,93.00
2017-10-03T04:24:26.052Z,93.10
2017-10-03T04:26:53.799Z,93.10
2017-10-03T04:29:21.547Z,92.70
2017-10-03T04:31:49.198Z,92.80
2017-10-03T04:34:16.910Z,92.70
2017-10-03T04:36:44.563Z,92.80
2017-10-03T04:39:12.215Z,92.90
2017-10-03T04:41:39.916Z,92.80
2017-10-03T04:44:07.571Z,92.80
2017-10-03T04:46:35.264Z,92.70
2017-10-03T04:49:02.971Z,92.60
2017-10-03T04:51:30.772Z,92.50
2017-10-03T04:53:58.414Z,92.30
2017-10-03T04:56:26.106Z,92.40
2017-10-03T04:58:53.811Z,92.50
2017-10-03T05:01:21.557Z,92.20
2017-10-03T05:03:49.265Z,92.20
2017-10-03T05:06:16.909Z,92.00
2017-10-03T05:08:44.595Z,92.10
2017-10-03T05:11:12.283Z,92.00
2017-10-03T05:13:39.918Z,91.90
2017-10-03T05:16:08.041Z,91.80
2017-10-03T05:18:35.830Z,91.80
2017-10-03T05:21:03.483Z,91.70
2017-10-03T05:23:31.176Z,91.30
2017-10-03T05:25:58.928Z,91.40
2017-10-03T05:28:27.391Z,91.40
2017-10-03T05:30:55.040Z,91.50
2017-10-03T05:33:22.824Z,91.40
2017-10-03T05:35:50.858Z,91.20
2017-10-03T05:38:18.589Z,91.20
2017-10-03T05:40:46.315Z,91.00
2017-10-03T05:43:13.959Z,91.10
2017-10-03T05:45:41.601Z,91.50
2017-10-03T05:48:09.351Z,91.30
2017-10-03T05:50:37.016Z,91.50
2017-10-03T05:53:04.671Z,91.50
2017-10-03T05:55:32.369Z,91.50
2017-10-03T05:58:00.059Z,91.60
2017-10-03T06:00:27.800Z,91.20
2017-10-03T06:02:55.499Z,91.70
2017-10-03T06:05:23.147Z,91.60
2017-10-03T06:07:51.045Z,91.50
2017-10-03T06:10:19.008Z,91.40
2017-10-03T06:12:46.658Z,91.50
2017-10-03T06:15:14.311Z,90.90
2017-10-03T06:17:42.012Z,91.10
2017-10-03T06:20:09.667Z,91.00
2017-10-03T06:22:37.303Z,91.20
2017-10-03T06:25:05.003Z,91.60
2017-10-03T06:27:33.124Z,91.60
2017-10-03T06:30:00.775Z,91.60
2017-10-03T06:32:28.483Z,91.80
2017-10-03T06:34:56.138Z,91.80
2017-10-03T06:37:23.911Z,92.50
2017-10-03T06:39:51.605Z,92.40
2017-10-03T06:42:19.332Z,92.60
2017-10-03T06:44:47.380Z,90.40
2017-10-03T06:47:15.579Z,89.60
2017-10-03T06:49:43.262Z,89.60
2017-10-03T06:52:10.971Z,90.80
2017-10-03T06:54:38.857Z,93.60
2017-10-03T06:57:06.606Z,95.80
2017-10-03T06:59:34.303Z,95.90
2017-10-03T07:02:02.043Z,96.50
2017-10-03T07:04:29.744Z,97.10
2017-10-03T07:06:57.493Z,96.30
2017-10-03T07:09:25.197Z,96.00
2017-10-03T07:11:52.847Z,96.20
2017-10-03T07:14:20.532Z,96.70
2017-10-03T07:16:48.278Z,95.90
2017-10-03T07:19:15.935Z,95.80
2017-10-03T07:21:43.628Z,95.90
2017-10-03T07:24:11.398Z,95.90
2017-10-03T07:26:39.047Z,95.80
2017-10-03T07:29:06.708Z,95.70
2017-10-03T07:31:34.456Z,96.70
2017-10-03T07:34:02.115Z,96.50
2017-10-03T07:36:29.770Z,96.10
2017-10-03T07:38:57.974Z,95.70
2017-10-03T07:41:26.058Z,95.70
2017-10-03T07:43:53.808Z,96.20
2017-10-03T07:46:21.525Z,96.50
2017-10-03T07:48:49.609Z,95.90
2017-10-03T07:51:17.357Z,96.30
2017-10-03T07:53:45.151Z,96.20
2017-10-03T07:56:12.856Z,96.20
2017-10-03T07:58:40.603Z,95.90
2017-10-03T08:01:08.440Z,96.20
2017-10-03T08:03:36.099Z,95.10
2017-10-03T08:06:03.755Z,95.20
2017-10-03T08:08:31.483Z,95.60
2017-10-03T08:10:59.230Z,95.50
2017-10-03T08:13:26.882Z,95.60
2017-10-03T08:15:54.580Z,95.60
2017-10-03T08:18:22.247Z,96.70
2017-10-03T08:20:49.904Z,94.80
2017-10-03T08:23:17.757Z,94.60
2017-10-03T08:25:45.403Z,94.20
2017-10-03T08:28:13.063Z,95.20
2017-10-03T08:30:40.801Z,94.80
2017-10-03T08:33:08.451Z,94.30
2017-10-03T08:35:36.193Z,96.20
2017-10-03T08:38:03.908Z,93.80
2017-10-03T08:40:31.584Z,95.20
2017-10-03T08:42:59.231Z,93.70
2017-10-03T08:45:26.932Z,95.30
2017-10-03T08:47:54.636Z,93.60
2017-10-03T08:50:22.339Z,95.00
2017-10-03T08:52:50.117Z,95.20
2017-10-03T08:55:17.867Z,95.50
2017-10-03T08:57:45.521Z,94.40
2017-10-03T09:00:13.237Z,92.70
2017-10-03T09:02:40.892Z,93.50
2017-10-03T09:05:08.551Z,94.40
2017-10-03T09:07:36.382Z,94.30
2017-10-03T09:10:04.144Z,94.10
2017-10-03T09:12:31.788Z,95.20
2017-10-03T09:14:59.555Z,96.30
2017-10-03T09:17:27.203Z,96.90
2017-10-03T09:19:54.839Z,97.30
2017-10-03T09:22:22.535Z,97.30
2017-10-03T09:24:50.179Z,97.00
2017-10-03T09:27:17.831Z,96.30
2017-10-03T09:29:45.543Z,96.30
2017-10-03T09:32:13.666Z,96.50
2017-10-03T09:34:41.328Z,96.50
2017-10-03T09:37:09.164Z,97.00
2017-10-03T09:39:36.907Z,97.70
2017-10-03T09:42:04.579Z,97.50
2017-10-03T09:44:32.504Z,97.20
2017-10-03T09:47:00.251Z,97.50
2017-10-03T09:49:27.998Z,97.60
2017-10-03T09:51:55.952Z,97.40
2017-10-03T09:54:23.652Z,96.70
2017-10-03T09:56:51.347Z,96.90
2017-10-03T09:59:19.297Z,96.70
2017-10-03T10:01:47.015Z,95.80
2017-10-03T10:04:15.187Z,96.20
2017-10-03T10:06:42.884Z,95.40
2017-10-03T10:09:10.967Z,96.60
2017-10-03T10:11:38.623Z,96.60
2017-10-03T10:14:06.343Z,96.10
2017-10-03T10:16:34.003Z,96.00
2017-10-03T10:19:01.683Z,94.50
2017-10-03T10:21:29.592Z,95.70
2017-10-03T10:23:57.303Z,95.20
2017-10-03T10:26:25.404Z,95.10
2017-10-03T10:28:53.127Z,95.10
2017-10-03T10:31:20.775Z,95.70
2017-10-03T10:33:49.043Z,93.10
2017-10-03T10:36:17.664Z,92.90
2017-10-03T10:38:45.314Z,92.80
2017-10-03T10:41:13.049Z,92.00
2017-10-03T10:43:40.752Z,92.00
2017-10-03T10:46:08.411Z,91.40
2017-10-03T10:48:36.177Z,91.90
2017-10-03T10:51:03.936Z,91.80
2017-10-03T10:53:31.683Z,91.70
2017-10-03T10:55:59.323Z,90.30
2017-10-03T10:58:27.047Z,91.10
2017-10-03T11:00:54.691Z,90.10
2017-10-03T11:03:22.347Z,90.20
2017-10-03T11:05:50.063Z,90.20
2017-10-03T11:08:17.711Z,91.50
2017-10-03T11:10:45.609Z,91.80
2017-10-03T11:13:13.404Z,91.00
2017-10-03T11:15:41.103Z,91.50
2017-10-03T11:18:08.751Z,91.10
2017-10-03T11:20:36.475Z,91.90
2017-10-03T11:23:16.019Z,91.90
2017-10-03T11:25:43.780Z,92.20
2017-10-03T11:28:11.843Z,91.10
2017-10-03T11:30:39.906Z,90.90
2017-10-03T11:33:08.094Z,90.40
2017-10-03T11:35:35.752Z,90.40
2017-10-03T11:38:03.400Z,90.90
2017-10-03T11:40:31.190Z,88.70
2017-10-03T11:42:58.839Z,89.90
2017-10-03T11:45:26.891Z,89.00
2017-10-03T11:47:54.711Z,89.00
2017-10-03T11:50:22.363Z,89.60
2017-10-03T11:52:50.020Z,90.60
2017-10-03T11:55:17.720Z,90.50
2017-10-03T11:57:45.366Z,90.50
2017-10-03T12:00:13.150Z,90.30
2017-10-03T12:02:40.898Z,89.90
2017-10-03T12:05:08.547Z,90.60
2017-10-03T12:07:36.202Z,89.60
2017-10-03T12:10:03.984Z,90.30
2017-10-03T12:12:31.636Z,90.00
2017-10-03T12:14:59.335Z,90.30
2017-10-03T12:17:27.042Z,90.50
2017-10-03T12:19:54.721Z,89.90
2017-10-03T12:22:22.382Z,90.40
2017-10-03T12:24:50.119Z,89.90
2017-10-03T12:27:17.860Z,90.00
2017-10-03T12:29:45.508Z,88.50
2017-10-03T12:32:13.236Z,87.20
2017-10-03T12:34:40.879Z,87.20
2017-10-03T12:37:08.541Z,83.80
2017-10-03T12:39:36.387Z,85.10
2017-10-03T12:42:04.046Z,84.50
2017-10-03T12:44:31.703Z,84.90
2017-10-03T12:46:59.799Z,82.40
2017-10-03T12:49:27.447Z,82.40
2017-10-03T12:51:55.104Z,83.60
2017-10-03T12:54:22.803Z,82.50
2017-10-03T12:56:50.851Z,82.40
2017-10-03T12:59:18.899Z,83.30
2017-10-03T13:01:46.630Z,83.30
2017-10-03T13:04:14.274Z,82.30
2017-10-03T13:06:41.928Z,79.30
2017-10-03T13:09:09.749Z,79.50
2017-10-03T13:11:37.516Z,79.90
2017-10-03T13:14:05.263Z,77.80
2017-10-03T13:16:33.113Z,78.80
2017-10-03T13:19:00.763Z,76.80
2017-10-03T13:21:28.505Z,74.30
2017-10-03T13:23:56.214Z,73.90
2017-10-03T13:26:23.867Z,71.20
2017-10-03T13:28:51.521Z,71.40
2017-10-03T13:31:19.231Z,70.80
2017-10-03T13:33:46.887Z,70.80
2017-10-03T13:36:14.532Z,70.50
2017-10-03T13:38:42.248Z,70.90
2017-10-03T13:41:10.296Z,71.30
2017-10-03T13:43:37.947Z,71.30
2017-10-03T13:46:06.130Z,70.00
2017-10-03T13:48:33.779Z,70.10
2017-10-03T13:51:01.428Z,69.50
2017-10-03T13:53:29.221Z,70.80
2017-10-03T13:55:56.865Z,69.20
2017-10-03T13:58:24.616Z,70.90
2017-10-03T14:00:52.402Z,70.50
2017-10-03T14:03:20.110Z,70.30
2017-10-03T14:05:47.858Z,70.80
2017-10-03T14:08:15.568Z,69.80
2017-10-03T14:10:43.220Z,70.50
2017-10-03T14:13:10.863Z,71.00
2017-10-03T14:15:38.743Z,69.30
2017-10-03T14:18:06.490Z,70.20
2017-10-03T14:20:34.238Z,70.50
2017-10-03T14:23:01.939Z,70.70
2017-10-03T14:25:29.586Z,71.90
2017-10-03T14:27:57.236Z,71.40
2017-10-03T14:30:24.962Z,71.00
2017-10-03T14:32:52.607Z,71.20
2017-10-03T14:35:20.651Z,70.30
2017-10-03T14:37:48.859Z,68.60
2017-10-03T14:40:16.502Z,68.60
2017-10-03T14:42:44.170Z,69.20
2017-10-03T14:45:11.955Z,68.50
2017-10-03T14:47:40.002Z,68.30
2017-10-03T14:50:08.129Z,70.40
2017-10-03T14:52:35.959Z,70.40
2017-10-03T14:55:03.694Z,70.20
2017-10-03T14:57:31.350Z,71.10
2017-10-03T14:59:59.306Z,71.10
2017-10-03T15:02:27.376Z,71.70
2017-10-03T15:04:55.035Z,72.70
2017-10-03T15:07:23.182Z,73.60
2017-10-03T15:09:51.133Z,73.30
2017-10-03T15:12:18.880Z,72.00
2017-10-03T15:14:46.591Z,71.50
2017-10-03T15:17:14.579Z,69.90
2017-10-03T15:19:43.966Z,70.00
2017-10-03T15:22:11.815Z,70.70
2017-10-03T15:24:39.561Z,71.20
2017-10-03T15:27:07.411Z,73.00
2017-10-03T15:29:35.107Z,74.00
2017-10-03T15:32:02.804Z,74.40
2017-10-03T15:34:30.454Z,75.70
2017-10-03T15:36:58.152Z,75.30
2017-10-03T15:39:26.014Z,76.20
2017-10-03T15:41:53.683Z,74.70
2017-10-03T15:44:21.408Z,76.10
2017-10-03T15:46:49.051Z,76.40
2017-10-03T15:49:16.728Z,76.80
2017-10-03T15:51:44.738Z,77.70
2017-10-03T15:54:12.407Z,77.00
2017-10-03T15:56:40.055Z,77.20
2017-10-03T15:59:07.769Z,76.90
2017-10-03T16:01:35.418Z,76.70
2017-10-03T16:04:03.076Z,77.90
2017-10-03T16:06:30.782Z,77.70
2017-10-03T16:08:58.911Z,78.50
2017-10-03T16:11:26.657Z,78.50
2017-10-03T16:13:54.351Z,78.40
2017-10-03T16:16:22.002Z,79.10
2017-10-03T16:18:49.649Z,79.70
2017-10-03T16:21:17.406Z,80.20
2017-10-03T16:23:45.047Z,80.20
2017-10-03T16:26:12.735Z,80.10
2017-10-03T16:28:40.435Z,80.40
2017-10-03T16:31:08.091Z,81.80
2017-10-03T16:33:35.771Z,81.00
2017-10-03T16:36:03.475Z,80.50
2017-10-03T16:38:31.127Z,80.50
2017-10-03T16:40:58.779Z,79.90
2017-10-03T16:43:26.478Z,80.10
2017-10-03T16:45:54.532Z,80.20
2017-10-03T16:48:22.575Z,80.50
2017-10-03T16:50:50.311Z,80.50
2017-10-03T16:53:17.964Z,81.10
2017-10-03T16:55:45.606Z,80.90
2017-10-03T16:58:13.300Z,81.00
2017-10-03T17:00:40.943Z,81.20
2017-10-03T17:03:08.628Z,81.30
2017-10-03T17:05:37.017Z,81.30
2017-10-03T17:08:04.746Z,81.90
2017-10-03T17:10:32.493Z,82.60
2017-10-03T17:13:00.241Z,82.00
2017-10-03T17:15:29.870Z,81.80
2017-10-03T17:17:57.988Z,82.30
2017-10-03T17:20:25.695Z,82.30
2017-10-03T17:22:53.384Z,82.60
2017-10-03T17:25:21.130Z,83.50
2017-10-03T17:27:48.830Z,83.10
2017-10-03T17:30:16.963Z,83.60
2017-10-03T17:32:45.008Z,84.40
2017-10-03T17:35:13.118Z,84.60
2017-10-03T17:37:40.775Z,84.60
2017-10-03T17:40:08.422Z,84.60
2017-10-03T17:42:36.259Z,85.00
2017-10-03T17:45:04.028Z,85.30
2017-10-03T17:47:31.776Z,85.70
2017-10-03T17:49:59.471Z,85.60
2017-10-03T17:52:27.150Z,85.90
2017-10-03T17:54:54.790Z,86.10
2017-10-03T17:57:22.675Z,85.90
2017-10-03T17:59:50.328Z,85.70
2017-10-03T18:02:17.983Z,85.80
2017-10-03T18:04:46.086Z,85.80
2017-10-03T18:07:13.748Z,85.80
2017-10-03T18:09:41.502Z,86.10
2017-10-03T18:12:09.210Z,86.30
2017-10-03T18:14:36.897Z,86.30
2017-10-03T18:17:04.593Z,86.40
2017-10-03T18:19:33.284Z,86.40
2017-10-03T18:22:01.019Z,86.70
2017-10-03T18:24:28.688Z,86.60
2017-10-03T18:26:57.448Z,87.10
2017-10-03T18:29:25.096Z,87.20
2017-10-03T18:31:52.782Z,87.10
2017-10-03T18:34:20.514Z,87.20
2017-10-03T18:36:48.262Z,87.10
2017-10-03T18:39:15.993Z,87.40
2017-10-03T18:41:43.705Z,87.40
2017-10-03T18:44:11.343Z,87.60
2017-10-03T18:46:38.987Z,88.10
2017-10-03T18:49:06.778Z,88.40
2017-10-03T18:51:34.539Z,88.40
2017-10-03T18:54:03.428Z,88.20
2017-10-03T18:56:31.930Z,88.30
2017-10-03T18:58:59.588Z,88.30
2017-10-03T19:01:27.325Z,88.20
2017-10-03T19:03:55.021Z,88.00
2017-10-03T19:06:22.765Z,88.10
2017-10-03T19:08:50.415Z,88.30
2017-10-03T19:11:18.227Z,88.10
2017-10-03T19:13:45.876Z,88.20
2017-10-03T19:16:13.595Z,88.30
2017-10-03T19:18:42.119Z,88.40
2017-10-03T19:21:09.863Z,88.10
2017-10-03T19:23:37.519Z,88.30
2017-10-03T19:26:05.233Z,88.40
2017-10-03T19:28:33.924Z,88.40
2017-10-03T19:31:01.660Z,88.30
2017-10-03T19:33:29.807Z,88.50
2017-10-03T19:35:57.468Z,88.70
2017-10-03T19:38:25.108Z,88.60
2017-10-03T19:40:53.002Z,89.20
2017-10-03T19:43:22.151Z,89.10
2017-10-03T19:45:51.304Z,89.40
2017-10-03T19:48:19.033Z,89.40
2017-10-03T19:50:46.929Z,89.30
2017-10-03T19:53:14.595Z,89.20
2017-10-03T19:55:43.595Z,89.20
2017-10-03T19:58:11.239Z,89.20
2017-10-03T20:00:38.940Z,89.40
2017-10-03T20:03:06.676Z,89.50
2017-10-03T20:05:34.418Z,89.60
2017-10-03T20:08:02.078Z,89.60
2017-10-03T20:10:29.777Z,89.60
2017-10-03T20:12:57.424Z,89.50
2017-10-03T20:15:25.091Z,89.30
2017-10-03T20:17:53.377Z,89.40
2017-10-03T20:20:21.125Z,89.50
2017-10-03T20:22:48.779Z,89.30
2017-10-03T20:25:16.511Z,89.20
2017-10-03T20:27:44.163Z,89.20
2017-10-03T20:30:11.908Z,89.20
2017-10-03T20:32:39.607Z,88.80
2017-10-03T20:35:07.255Z,89.00
2017-10-03T20:37:34.904Z,89.30
2017-10-03T20:40:02.693Z,89.30
2017-10-03T20:42:30.367Z,89.10
2017-10-03T20:44:58.031Z,89.50
2017-10-03T20:47:25.728Z,89.50
2017-10-03T20:49:53.481Z,89.30
2017-10-03T20:52:21.128Z,89.10
2017-10-03T20:54:48.828Z,89.10
2017-10-03T20:57:16.557Z,89.00
2017-10-03T20:59:44.247Z,89.00
2017-10-03T21:02:11.979Z,88.90
2017-10-03T21:04:39.655Z,88.80
2017-10-03T21:07:07.312Z,89.00
2017-10-03T21:09:35.191Z,89.10
2017-10-03T21:12:02.835Z,89.30
2017-10-03T21:14:30.494Z,89.40
2017-10-03T21:16:58.290Z,89.60
2017-10-03T21:19:25.943Z,89.50
2017-10-03T21:21:53.685Z,89.20
2017-10-03T21:24:21.518Z,89.40
2017-10-03T21:26:49.177Z,89.30
2017-10-03T21:29:16.832Z,89.20
2017-10-03T21:31:44.672Z,89.20
2017-10-03T21:34:12.347Z,89.00
2017-10-03T21:36:40.387Z,89.00
2017-10-03T21:39:08.110Z,89.00
2017-10-03T21:41:47.743Z,89.10
2017-10-03T21:44:15.508Z,89.30
2017-10-03T21:46:43.648Z,89.30
2017-10-03T21:49:11.396Z,89.30
2017-10-03T21:51:39.107Z,89.20
2017-10-03T21:54:06.759Z,89.40
2017-10-03T21:56:34.410Z,89.30
2017-10-03T21:59:02.177Z,89.20
2017-10-03T22:01:29.925Z,89.20
2017-10-03T22:03:57.567Z,89.40
2017-10-03T22:06:25.267Z,89.00
2017-10-03T22:08:52.914Z,89.10
2017-10-03T22:11:20.568Z,89.30
2017-10-03T22:13:48.561Z,89.30
2017-10-03T22:16:16.316Z,89.40
2017-10-03T22:18:44.057Z,89.50
2017-10-03T22:21:11.803Z,89.90
2017-10-03T22:23:39.454Z,90.20
2017-10-03T22:26:07.196Z,90.40
2017-10-03T22:28:34.902Z,90.10
2017-10-03T22:31:02.559Z,89.90
2017-10-03T22:33:30.231Z,89.90
2017-10-03T22:35:57.938Z,90.10
2017-10-03T22:38:25.587Z,90.00
2017-10-03T22:40:53.230Z,90.00
2017-10-03T22:43:21.020Z,90.20
2017-10-03T22:45:48.767Z,90.40
2017-10-03T22:48:16.514Z,90.40
2017-10-03T22:50:44.263Z,90.30
2017-10-03T22:53:11.907Z,90.40
2017-10-03T22:55:39.653Z,90.40
2017-10-03T22:58:07.351Z,90.20
2017-10-03T23:00:34.998Z,90.50
2017-10-03T23:03:02.689Z,90.60
2017-10-03T23:05:30.391Z,90.60
2017-10-03T23:07:58.082Z,90.70
2017-10-03T23:10:25.735Z,90.80
2017-10-03T23:12:53.681Z,90.80
2017-10-03T23:15:21.431Z,91.00
2017-10-03T23:17:49.176Z,90.80
2017-10-03T23:20:16.966Z,90.70
2017-10-03T23:22:44.676Z,90.80
2017-10-03T23:25:12.416Z,90.80
2017-10-03T23:27:40.165Z,90.70
2017-10-03T23:30:07.828Z,90.50
2017-10-03T23:32:35.867Z,90.80
2017-10-03T23:35:03.584Z,90.80
2017-10-03T23:37:31.242Z,90.70
2017-10-03T23:39:59.005Z,90.80
2017-10-03T23:42:27.160Z,90.00
2017-10-03T23:44:54.909Z,90.00
2017-10-03T23:47:22.559Z,90.00
2017-10-03T23:49:50.259Z,90.10
2017-10-03T23:52:17.900Z,90.50
2017-10-03T23:54:45.555Z,90.40
2017-10-03T23:57:13.248Z,90.40
2017-10-03T23:59:40.983Z,90.30
